Pablo Giménez

Olheiro-Chefe - Celta
4 Mar 2027
Quinta-feira
Processo

Personalidade

Adaptabilidade (2) Ambição (3) Controvérsia (16) Lealdade (10) Pressão (19) Profissionalismo (19) Espírito Esportivo (12) Temperamento (4)

Perfil

Estilo de Treinamento Democrático
Licença Continental Pro
Determinação 7
Gestão de Pessoas 11
Motivação 12
Disciplina 9
Satisfação no Trabalho
50%
Fadiga
0%
Função Olheiro-Chefe
Salário 95.9K p/s
Contrato 14.03.2027

Desempenho

Comportamento Normal
Eficácia do Treinamento
27%
Desenvolvimento do Jogador
50%
Prevenção de Lesões
70%
Implementação Tática
65%

Eventos Recentes

Negociação de contrato iniciada agora
Avaliou um jogador agora
Participou de uma reunião de recrutamento agora
Recomendou um alvo de transferência agora
Recomendou um alvo de transferência agora
Recomendou um alvo de transferência agora
Negociação de contrato iniciada agora
Avaliou um jogador agora

Monitorando agora

210
Jogador Clube Status Habilidade Confiança Observado Última observação Último voto
Luca Orellano Monterrey Ativo 131 / 129 40% 4 02.03.2027 -
Christian Krasnodar Ativo 126 / 135 40% 2 02.03.2027 -
Gabriel Sara Galatasaray Ativo 152 / 141 40% 2 02.03.2027 -
Louis Leroux FC Nantes Ativo 129 / 127 40% 2 02.03.2027 -
Jonathan Arteaga Veracruz Ativo 116 / 122 40% 5 02.03.2027 -
Itumeleng Zungu Free State Stars Ativo 114 / 119 40% 2 02.03.2027 -
Petar Stanić Ludogorets Ativo 142 / 135 40% 5 01.03.2027 -
Bart van Rooij Twente Ativo 137 / 138 40% 3 01.03.2027 -
Pedro Henrique Shakhtar Ativo 133 / 127 40% 1 01.03.2027 -
Alpha Touré FC Metz Ativo 113 / 122 40% 6 28.02.2027 -
Helinho Toluca Ativo 127 / 123 40% 4 26.02.2027 -
João Teixeira Porto Ativo 105 / 112 40% 3 26.02.2027 -
Thierry Rendall Correia Venezia Ativo 142 / 136 40% 3 26.02.2027 -
Chiquinho Alverca Ativo 130 / 130 40% 2 26.02.2027 -
Daniel Banjaqui Benfica Ativo 112 / 122 40% 1 26.02.2027 -
Kyrylo Dihtiar Metalist Ativo 105 / 105 40% 1 26.02.2027 -
Richard Ledezma Guadalajara Ativo 140 / 140 40% 4 24.02.2027 -
Andrey Ivlev Nizhniy Novgorod Ativo 114 / 111 40% 2 24.02.2027 -
José Pachuca Puebla Ativo 111 / 112 40% 2 24.02.2027 -
Jofre Carreras Espanyol Ativo 131 / 138 40% 1 24.02.2027 -
Chris Rigg Sunderland Ativo 125 / 140 40% 2 22.02.2027 -
Leandrinho Sharjah Ativo 108 / 111 40% 2 22.02.2027 -
Salvador Blopá Sporting CP Ativo 119 / 126 40% 1 22.02.2027 -
James Dornelly Peterborough United Ativo 97 / 112 40% 4 21.02.2027 -
Toni Tamarit Alverca Ativo 120 / 117 40% 4 21.02.2027 -
Yassine Khalifi Charleroi Ativo 104 / 108 40% 2 20.02.2027 -
Izan Merino Málaga Ativo 130 / 126 40% 1 20.02.2027 -
Eliás Montiel Pachuca Ativo 136 / 135 40% 7 18.02.2027 -
Pape Diong Westerlo Ativo 108 / 119 40% 1 18.02.2027 -
Gladson Appiah Liberty Professionals Ativo 100 / 104 40% 1 18.02.2027 -
Joaquin Seys Club Brugge Ativo 123 / 126 40% 6 17.02.2027 -
Rabby Nzingoula West Bromwich Albion Ativo 114 / 126 40% 3 17.02.2027 -
Riley Owen Pergolettese Ativo 95 / 110 40% 1 17.02.2027 -
Marlon Gomes Shakhtar Ativo 134 / 144 40% 2 16.02.2027 -
Caleb Yirenkyi Coventry City Ativo 140 / 138 40% 1 16.02.2027 -
Vinicius Tobias Shakhtar Ativo 141 / 137 40% 1 16.02.2027 -
Nacer Tielemans Mouscron Ativo 135 / 140 40% 3 15.02.2027 -
Matvey Kislyak CSKA Moscow Ativo 142 / 135 40% 1 13.02.2027 -
Bertuğ Yıldırım Basaksehir Ativo 124 / 126 40% 1 13.02.2027 -
Jovon Makama Norwich City Ativo 126 / 124 40% 1 13.02.2027 -
Kauã Elias Shakhtar Ativo 127 / 136 40% 1 13.02.2027 -
Noah Nartey Olympique Lyonnais Ativo 127 / 133 40% 1 11.02.2027 -
Christ Inao Oulaï Fiorentina Ativo 139 / 140 40% 2 10.02.2027 -
Eduard Spertsyan Al-Ahli Ativo 137 / 144 40% 1 10.02.2027 -
Leandro Andrade Polissia Ativo 124 / 131 40% 1 10.02.2027 -
Felipe Augusto Zenit Ativo 136 / 139 40% 6 09.02.2027 -
Korede Osundina Casa Pia Ativo 121 / 120 40% 1 09.02.2027 -
Nahuel Ulariaga Al Ahli Ativo 130 / 126 40% 1 09.02.2027 -
Marcel Ruiz Toluca Ativo 146 / 144 40% 8 07.02.2027 -
Honest Ahanor Atalanta Ativo 134 / 137 40% 2 07.02.2027 -
Tiago Freitas Benfica Ativo 109 / 118 40% 1 07.02.2027 -
Roger Hinojo Espanyol Ativo 108 / 118 40% 1 06.02.2027 -
Simphiwe Selepe Orlando Pirates Ativo 118 / 114 40% 1 04.02.2027 -
Harrison Armstrong Everton Ativo 130 / 130 40% 1 03.02.2027 -
Antonio Blanco Alavés Ativo 151 / 149 40% 1 30.01.2027 -
Yusi Alavés Ativo 125 / 126 40% 1 29.01.2027 -
Axel Tape Bayer Leverkusen Ativo 129 / 134 40% 1 29.01.2027 -
Isma Ruiz Córdoba Relatório pronto 134 / 124 76% 1 25.01.2027 Aprovar
Michy Fellaini KV Oostende Ativo 141 / 138 40% 16 24.01.2027 -
Vitinha Genoa Ativo 130 / 127 40% 1 24.01.2027 -
Tomy Carbonell Real Sociedad Rejeitado 108 / 113 67% 1 23.01.2027 Rejeitar
Ivan M'Bahia Clermont Foot Ativo 114 / 118 40% 1 22.01.2027 -
Samuel Lucero Defensa y Justicia Ativo 113 / 122 40% 1 22.01.2027 -
Sébastien Durand Tours Ativo 140 / 133 40% 3 19.01.2027 -
Esequiel Barco Spartak Moscow Ativo 140 / 131 40% 2 18.01.2027 -
Yousef Salech Cardiff City Ativo 128 / 123 40% 2 17.01.2027 -
Alejandro Piedrahita Deportivo Pereira Ativo 128 / 123 40% 1 17.01.2027 -
Percy Erasmus SuperSport United Ativo 118 / 123 40% 1 17.01.2027 -
Juan Pablo De la Reta Maipú Ativo 110 / 117 40% 3 16.01.2027 -
Carlos Fernández Oviedo Ativo 122 / 129 40% 9 14.01.2027 -
Sergio Quintero La Equidad Ativo 136 / 145 40% 3 14.01.2027 -
Kyriani Sabbe Club Brugge Ativo 118 / 130 40% 1 14.01.2027 -
Nicolò Tresoldi Club Brugge Ativo 129 / 130 40% 5 12.01.2027 -
Domagoj Drožđek Tractor Ativo 124 / 125 40% 1 12.01.2027 -
Arthur Gomes Dinamo Moscow Ativo 125 / 121 40% 1 12.01.2027 -
Rey Manaj Sivasspor Ativo 139 / 128 40% 1 11.01.2027 -
Roger Brugué Levante Ativo 136 / 131 40% 4 10.01.2027 -
Chris Ramos Botafogo Ativo 127 / 126 40% 3 10.01.2027 -
Nicolás Fernández Belgrano Ativo 129 / 125 40% 4 09.01.2027 -
Lucas Agazzi Defensor Sporting Ativo 116 / 127 40% 2 06.01.2027 -
Tobías Quiroz Lanús Ativo 103 / 107 40% 1 06.01.2027 -
Nazareno Kihm Ferro Carril Oeste Ativo 114 / 115 40% 1 03.01.2027 -
Ignacio Perruzzi San Lorenzo Ativo 120 / 129 40% 1 03.01.2027 -
Thiago Silvero River Plate Ativo 119 / 130 40% 1 02.01.2027 -
Roberto Alvarado Guadalajara Relatório pronto 139 / 139 66% 1 01.01.2027 Aprovar
Pedro de la Vega Seattle Sounders Relatório pronto 133 / 134 66% 1 01.01.2027 Aprovar
Diber Cambindo Leon Ativo 122 / 121 40% 8 31.12.2026 -
Ismael Díaz Leon Ativo 134 / 119 40% 3 31.12.2026 -
Gedson Fernandes Spartak Moscow Ativo 132 / 142 40% 3 30.12.2026 -
Tomás Cuello Atlético Mineiro Ativo 130 / 128 40% 1 30.12.2026 -
Brian Rodríguez Club America Ativo 138 / 133 40% 1 30.12.2026 -
Sebastián Villa Boca Juniors Ativo 128 / 124 40% 7 28.12.2026 -
Fashion Sakala Al-Fayha Ativo 137 / 121 40% 5 28.12.2026 -
Juan Brunetta Tigres Ativo 144 / 136 40% 6 27.12.2026 -
Erik Prekop Gornik Zabrze Ativo 137 / 130 40% 2 27.12.2026 -
Chupete Málaga Ativo 130 / 131 40% 1 27.12.2026 -
Ozziel Herrera Tigres Ativo 136 / 121 40% 1 26.12.2026 -
Arthur Cabral Botafogo Ativo 126 / 126 40% 2 25.12.2026 -
Adriano Bertaccini Anderlecht Ativo 125 / 127 40% 5 25.12.2026 -
Christian Kouamé Aris Thessaloniki Ativo 131 / 133 40% 8 24.12.2026 -
Ezequiel Ponce Elche Ativo 123 / 128 40% 3 23.12.2026 -
Luciano Gondou CSKA Moscow Ativo 138 / 133 40% 5 23.12.2026 -
Soufiane Rahimi Al Ain Ativo 149 / 144 40% 6 22.12.2026 -
Allahyar Sayyadmanesh Lech Ativo 128 / 123 40% 2 20.12.2026 -
Brenner Vasco da Gama Ativo 130 / 129 40% 2 20.12.2026 -
Alan Velasco Boca Juniors Ativo 130 / 127 40% 8 19.12.2026 -
Jason Januzaj Mouscron Ativo 144 / 149 40% 6 17.12.2026 -
Claudio Spinelli Vasco da Gama Ativo 123 / 128 40% 4 16.12.2026 -
Johannes Eggestein Austria Wien Ativo 132 / 120 40% 2 16.12.2026 -
Mateo Cassierra Atlético Mineiro Ativo 138 / 133 40% 2 15.12.2026 -
Óscar Aranda Espanyol Ativo 135 / 134 40% 2 14.12.2026 -
Oleh Ocheretko Shakhtar Ativo 138 / 129 40% 2 13.12.2026 -
Andrés Gómez Vasco da Gama Ativo 137 / 133 40% 1 13.12.2026 -
Félix Lemaréchal Club Brugge Ativo 134 / 137 40% 1 10.12.2026 -
Haissem Hassan Bloemfontein Celtic Ativo 140 / 125 40% 3 08.12.2026 -
Bitello Dinamo Moscow Ativo 143 / 140 40% 1 08.12.2026 -
Beñat Turrientes Real Sociedad Ativo 143 / 139 40% 1 08.12.2026 -
Marquinhos Spartak Moscow Ativo 137 / 132 40% 1 07.12.2026 -
Cristian Shpendi Cesena Ativo 124 / 126 40% 2 04.12.2026 -
Riqui Puig LA Galaxy Ativo 133 / 137 40% 3 03.12.2026 -
Moussa Dembélé Al-Ettifaq Ativo 130 / 127 40% 4 03.12.2026 -
Facundo Pellistri Panathinaikos Ativo 134 / 126 40% 2 03.12.2026 -
José Paradela Cruz Azul Ativo 143 / 139 40% 4 01.12.2026 -
Luis Vázquez Birmingham Ativo 124 / 126 40% 1 26.11.2026 -
Aral Şimşir Trabzonspor Ativo 136 / 124 40% 2 24.11.2026 -
Danylo Sikan Anderlecht Ativo 134 / 126 40% 1 24.11.2026 -
Jonathan Rowe Bologna Ativo 138 / 137 40% 1 24.11.2026 -
Che Adams Torino Ativo 139 / 134 40% 3 22.11.2026 -
Unai Gómez Udinese Ativo 139 / 138 40% 1 22.11.2026 -
Ola Solbakken FC Nordsjaelland Ativo 136 / 120 40% 1 21.11.2026 -
Sam Surridge Nashville SC Ativo 128 / 134 40% 6 17.11.2026 -
Rafiu Durosinmi Racing Genk Ativo 127 / 133 40% 3 15.11.2026 -
Álex Forés Burgos Ativo 124 / 130 40% 2 15.11.2026 -
Amine El Ouazzani Braga Ativo 135 / 131 40% 2 14.11.2026 -
Pablo Solari Spartak Moscow Ativo 131 / 134 40% 2 12.11.2026 -
Alvyn Sanches Young Boys Ativo 131 / 136 40% 2 12.11.2026 -
Maurits Kjærgaard Red Bull Salzburg Ativo 129 / 132 40% 1 12.11.2026 -
Yanis Begraoui Estoril Praia Ativo 139 / 130 40% 3 11.11.2026 -
Kévin Danois AJ Auxerre Ativo 137 / 133 40% 1 11.11.2026 -
Enzo Cardozo Almirante Brown Ativo 111 / 112 40% 1 10.11.2026 -
Camilo Rey Domenech Boca Juniors Ativo 110 / 122 40% 1 10.11.2026 -
Josh Sargent Toronto FC Ativo 122 / 135 40% 2 09.11.2026 -
Batista Mendy Trabzonspor Ativo 143 / 135 40% 1 07.11.2026 -
Alexandr Sobolev Zenit Ativo 122 / 135 40% 3 05.11.2026 -
Yuma Suzuki Kashima Antlers Ativo 130 / 137 40% 2 04.11.2026 -
Timo Werner San Jose Earthquakes Ativo 122 / 121 40% 2 03.11.2026 -
Juan Carlos Arana Racing Santander Ativo 121 / 123 40% 2 02.11.2026 -
Hugo Duro Valencia Ativo 146 / 141 40% 3 31.10.2026 -
Yacine Adli Al-Shabab Ativo 144 / 138 40% 1 31.10.2026 -
Kévin Denkey FC Cincinnati Ativo 118 / 135 40% 2 29.10.2026 -
Miguel Merentiel Boca Juniors Ativo 127 / 133 40% 5 28.10.2026 -
Gustavo Mantuan Zenit Ativo 132 / 138 40% 1 28.10.2026 -
Sondre Ørjasæter Twente Ativo 131 / 135 40% 1 28.10.2026 -
Tobias Bech AGF Ativo 120 / 129 40% 2 27.10.2026 -
Vladyslav Vanat Girona Ativo 127 / 137 40% 1 25.10.2026 -
Exequiel Zeballos Boca Juniors Ativo 138 / 129 40% 5 23.10.2026 -
Juninho Utrecht Ativo 128 / 124 40% 1 22.10.2026 -
Shuto Nakano Sanfrecce Hiroshima Ativo 134 / 123 40% 1 22.10.2026 -
Aitor Ruibal Betis Ativo 140 / 134 40% 1 19.10.2026 -
Mexx Meerdink AZ Ativo 131 / 134 40% 1 18.10.2026 -
Kiliann Sildillia PSV Ativo 127 / 130 40% 1 17.10.2026 -
Santi García Gil Vicente Ativo 138 / 132 40% 2 15.10.2026 -
Nicolás Fernández Mercau New York City Ativo 145 / 128 40% 1 15.10.2026 -
Hwang Hee-Chan Wolverhampton Ativo 128 / 138 40% 1 14.10.2026 -
Oli McBurnie Hull City Ativo 138 / 129 40% 1 14.10.2026 -
Romain Del Castillo Stade Brestois Ativo 140 / 133 40% 1 11.10.2026 -
Yoann Cathline Utrecht Ativo 134 / 130 40% 2 07.10.2026 -
Kota Tawaratsumida FC Tokyo Perdido 132 / 133 40% 1 07.10.2026 Mais informações
Zakaria Aboukhlal Torino Ativo 130 / 129 40% 1 07.10.2026 -
Dani Raba Valencia Ativo 134 / 131 40% 2 03.10.2026 -
Kerem Aktürkoğlu Fenerbahce Ativo 135 / 136 40% 1 03.10.2026 -
Carlos Martín Atlético Madrid Ativo 120 / 130 40% 2 01.10.2026 -
Gustavo Puerta Racing Santander Ativo 128 / 141 40% 1 28.09.2026 -
José Manuel López Palmeiras Ativo 135 / 137 40% 3 25.09.2026 -
Alexis Vega Toluca Ativo 142 / 147 40% 4 24.09.2026 -
Jens Petter Hauge Bodo/Glimt Ativo 135 / 138 40% 2 23.09.2026 -
Hugo Cuypers Monterrey Ativo 117 / 129 40% 1 23.09.2026 -
Cesar Corona Veracruz Ativo 138 / 128 40% 5 22.09.2026 -
Dion Beljo Dinamo Zagreb Ativo 125 / 129 40% 2 22.09.2026 -
Danilo Botafogo Ativo 132 / 138 40% 1 22.09.2026 -
Pedro Flamengo Ativo 136 / 140 40% 5 16.09.2026 -
Vitor Roque Palmeiras Ativo 136 / 149 40% 2 16.09.2026 -
Musa Barrow Al-Khaleej Ativo 127 / 132 40% 3 15.09.2026 -
Manfred Ugalde Spartak Moscow Ativo 120 / 135 40% 1 09.09.2026 -
Mojmír Chytil Besiktas Ativo 143 / 139 40% 1 08.09.2026 -
Erik Lira Cruz Azul Ativo 140 / 129 40% 1 08.09.2026 -
Wilfried Singo Galatasaray Ativo 151 / 146 40% 1 07.09.2026 -
Patati AZ Ativo 129 / 141 40% 1 07.09.2026 -
Martín Ojeda Orlando City Ativo 137 / 125 40% 5 05.09.2026 -
Dejan Joveljić Seattle Sounders Ativo 118 / 134 40% 1 04.09.2026 -
Efraín Álvarez Guadalajara Ativo 118 / 127 40% 1 27.08.2026 -
Dániel Gazdag Columbus Crew Ativo 120 / 122 40% 1 27.08.2026 -
Gonzalo Plata Dinamo Moscow Ativo 122 / 139 40% 2 25.08.2026 -
Paulinho Palmeiras Ativo 138 / 142 40% 1 24.08.2026 -
Alemão Rayo Vallecano Ativo 134 / 127 40% 2 23.08.2026 -
Talles Magno New York City Ativo 119 / 133 40% 1 23.08.2026 -
Morgan Whittaker Middlesbrough Ativo 126 / 130 40% 1 22.08.2026 -
Ivan Toney Al-Ahli Ativo 154 / 142 40% 1 21.08.2026 -
Petar Musa FC Dallas Ativo 143 / 127 40% 1 09.08.2026 -
Mohamed-Ali Cho Hull City Ativo 134 / 139 40% 2 08.08.2026 -
Alexander Sørloth Atlético Madrid Ativo 156 / 152 40% 1 06.08.2026 -
Andrés Martín Racing Santander Ativo 138 / 134 40% 1 06.08.2026 -
Germán Berterame Inter Miami CF Ativo 143 / 132 40% 1 05.08.2026 -
Jorge Pascual Granada Ativo 123 / 133 40% 2 04.08.2026 -
Miguel Rodríguez Alavés Ativo 131 / 135 40% 1 04.08.2026 -
Lucas Boyé Alavés Ativo 134 / 140 40% 1 03.08.2026 -
Christantus Uche Getafe Ativo 126 / 136 40% 1 03.08.2026 -
Iqraam Rayners Mamelodi Sundowns Ativo 128 / 130 40% 1 02.08.2026 -
Germán Valera Elche Ativo 133 / 136 40% 1 01.08.2026 -
Toni Martínez Alavés Ativo 137 / 140 40% 1 01.08.2026 -